createdAt,value
2022-10-19T00:02:51.083Z,67.61
2022-10-19T00:06:50.675Z,68.32
2022-10-19T00:10:50.107Z,68.66
2022-10-19T00:14:51.992Z,69.54
2022-10-19T00:18:51.055Z,67.55
2022-10-19T00:22:51.290Z,68.64
2022-10-19T00:26:50.868Z,68.96
2022-10-19T00:30:53.476Z,69.35
2022-10-19T00:34:53.121Z,70.05
2022-10-19T00:38:52.840Z,70.50
2022-10-19T00:42:57.113Z,70.71
2022-10-19T00:47:01.670Z,72.21
2022-10-19T00:51:01.908Z,73.13
2022-10-19T00:55:01.790Z,72.40
2022-10-19T00:59:01.393Z,71.20
2022-10-19T01:03:03.149Z,70.26
2022-10-19T01:07:05.227Z,70.40
2022-10-19T01:11:20.921Z,69.71
2022-10-19T01:15:33.050Z,69.70
2022-10-19T01:19:59.980Z,69.75
2022-10-19T01:24:28.097Z,69.92
2022-10-19T01:28:40.966Z,69.60
2022-10-19T01:33:01.227Z,70.00
2022-10-19T01:37:05.025Z,70.94
2022-10-19T01:41:15.601Z,71.27
2022-10-19T01:45:18.901Z,71.47
2022-10-19T01:49:24.573Z,70.84
2022-10-19T01:53:26.440Z,70.72
2022-10-19T01:57:30.452Z,70.42
2022-10-19T02:01:33.164Z,69.99
2022-10-19T02:05:37.166Z,68.69
2022-10-19T02:09:36.984Z,69.50
2022-10-19T02:13:38.024Z,71.68
2022-10-19T02:17:42.135Z,73.86
2022-10-19T02:21:44.227Z,74.19
2022-10-19T02:25:43.832Z,73.45
2022-10-19T02:29:43.281Z,72.66
2022-10-19T02:33:42.897Z,72.92
2022-10-19T02:37:44.644Z,74.16
2022-10-19T02:41:49.154Z,75.25
2022-10-19T02:45:57.072Z,76.04
2022-10-19T02:49:56.564Z,77.15
2022-10-19T02:54:01.203Z,77.12
2022-10-19T02:58:03.755Z,77.11
2022-10-19T03:02:03.221Z,76.69
2022-10-19T03:06:02.849Z,76.51
2022-10-19T03:10:04.218Z,76.75
2022-10-19T03:14:03.771Z,76.70
2022-10-19T03:18:03.037Z,75.66
2022-10-19T03:22:02.704Z,74.53
2022-10-19T03:26:06.519Z,73.67
2022-10-19T03:30:09.318Z,73.31
2022-10-19T03:34:08.315Z,73.46
2022-10-19T03:38:07.898Z,73.37
2022-10-19T03:42:09.373Z,73.26
2022-10-19T03:46:08.649Z,72.51
2022-10-19T03:50:10.926Z,71.60
2022-10-19T03:54:14.507Z,70.74
2022-10-19T03:58:16.225Z,70.14
2022-10-19T04:02:15.944Z,69.91
2022-10-19T04:06:21.213Z,69.67
2022-10-19T04:10:22.159Z,69.38
2022-10-19T04:14:32.042Z,69.05
2022-10-19T04:18:33.245Z,68.48
2022-10-19T04:22:32.918Z,68.49
2022-10-19T04:26:33.114Z,68.65
2022-10-19T04:30:34.405Z,68.38
2022-10-19T04:34:36.434Z,68.30
2022-10-19T04:38:38.776Z,68.29
2022-10-19T04:42:39.569Z,68.83
2022-10-19T04:46:50.521Z,69.96
2022-10-19T04:51:12.025Z,70.66
2022-10-19T04:55:12.384Z,70.54
2022-10-19T04:59:17.814Z,69.86
2022-10-19T05:08:34.668Z,69.96
2022-10-19T05:17:47.063Z,69.67
2022-10-19T05:21:54.265Z,69.78
2022-10-19T05:26:38.101Z,69.77
2022-10-19T05:31:50.440Z,70.49
2022-10-19T05:37:02.958Z,70.70
2022-10-19T05:42:15.571Z,70.28
2022-10-19T05:46:50.297Z,69.03
2022-10-19T05:51:20.908Z,67.56
2022-10-19T05:55:54.598Z,66.30
2022-10-19T06:07:28.457Z,63.21
2022-10-19T06:12:41.066Z,61.27
2022-10-19T06:17:19.899Z,60.31
2022-10-19T06:27:17.176Z,58.74
2022-10-19T08:16:28.155Z,51.97
2022-10-19T08:20:27.944Z,50.94
2022-10-19T08:24:26.993Z,51.10
2022-10-19T08:28:26.987Z,51.39
2022-10-19T08:32:28.688Z,50.21
2022-10-19T08:36:30.893Z,49.86
2022-10-19T08:40:32.910Z,49.82
2022-10-19T08:44:59.115Z,48.68
2022-10-19T08:49:02.457Z,48.72
2022-10-19T08:53:06.648Z,49.37
2022-10-19T08:57:16.562Z,49.89
2022-10-19T09:01:26.384Z,49.38
2022-10-19T09:05:38.179Z,48.78
2022-10-19T09:09:43.719Z,48.23
2022-10-19T09:14:04.100Z,46.66
2022-10-19T09:18:04.822Z,46.49
2022-10-19T09:22:09.743Z,46.82
2022-10-19T09:26:16.786Z,46.35
2022-10-19T09:30:21.317Z,47.31
2022-10-19T09:34:27.993Z,46.05
2022-10-19T09:38:33.770Z,45.83
2022-10-19T09:42:36.463Z,44.90
2022-10-19T09:46:48.080Z,44.21
2022-10-19T09:50:53.393Z,43.07
2022-10-19T09:55:03.241Z,41.57
2022-10-19T09:59:03.192Z,41.05
2022-10-19T10:03:03.479Z,40.71
2022-10-19T10:07:03.151Z,40.80
2022-10-19T10:11:13.771Z,39.94
2022-10-19T10:15:20.010Z,40.82
2022-10-19T10:19:20.267Z,40.63
2022-10-19T10:23:29.741Z,39.99
2022-10-19T10:27:36.531Z,38.95
2022-10-19T10:31:37.955Z,39.55
2022-10-19T10:35:38.386Z,39.74
2022-10-19T10:39:43.370Z,38.80
2022-10-19T10:43:56.016Z,37.95
2022-10-19T10:47:58.822Z,38.60
2022-10-19T10:52:02.098Z,37.87
2022-10-19T10:56:01.853Z,37.28
2022-10-19T11:00:11.973Z,36.68
2022-10-19T11:04:17.425Z,35.82
2022-10-19T11:08:24.763Z,34.33
2022-10-19T11:12:36.829Z,34.36
2022-10-19T11:16:44.194Z,33.28
2022-10-19T11:20:51.268Z,33.04
2022-10-19T11:25:00.421Z,32.81
2022-10-19T11:29:12.040Z,33.18
2022-10-19T11:33:24.851Z,31.62
2022-10-19T11:37:30.782Z,32.00
2022-10-19T11:41:41.157Z,32.19
2022-10-19T11:45:52.020Z,31.94
2022-10-19T11:50:04.728Z,30.98
2022-10-19T11:54:18.582Z,31.38
2022-10-19T11:58:34.864Z,31.19
2022-10-19T12:03:06.697Z,31.57
2022-10-19T12:07:30.764Z,31.35
2022-10-19T12:11:56.081Z,30.86
2022-10-19T12:15:58.254Z,30.16
2022-10-19T12:20:02.847Z,29.97
2022-10-19T12:24:08.603Z,30.03
2022-10-19T12:28:08.454Z,29.93
2022-10-19T12:32:10.234Z,30.09
2022-10-19T12:36:24.802Z,29.22
2022-10-19T12:40:36.305Z,28.67
2022-10-19T12:44:58.724Z,28.79
2022-10-19T12:49:36.049Z,28.46
2022-10-19T12:53:38.165Z,28.24
2022-10-19T14:31:00.746Z,29.47
2022-10-19T14:36:03.997Z,28.86
2022-10-19T14:40:30.866Z,28.86
2022-10-19T14:44:40.575Z,29.30
2022-10-19T14:48:42.234Z,29.58
2022-10-19T14:52:42.738Z,30.29
2022-10-19T14:56:55.255Z,30.00
2022-10-19T15:00:57.670Z,29.70
2022-10-19T15:05:00.695Z,30.37
2022-10-19T15:09:03.671Z,31.47
2022-10-19T15:13:06.769Z,32.18
2022-10-19T15:17:24.498Z,33.05
2022-10-19T15:21:23.730Z,34.09
2022-10-19T15:25:36.500Z,34.35
2022-10-19T15:29:35.631Z,34.75
2022-10-19T15:33:47.152Z,35.68
2022-10-19T15:38:15.697Z,37.24
2022-10-19T15:42:37.602Z,38.79
2022-10-19T15:47:00.398Z,39.04
2022-10-19T15:51:02.410Z,39.62
2022-10-19T15:55:03.078Z,40.44
2022-10-19T15:59:04.956Z,41.23
2022-10-19T16:03:07.467Z,41.37
2022-10-19T16:07:10.907Z,41.68
2022-10-19T16:11:15.208Z,43.55
2022-10-19T16:15:21.962Z,44.38
2022-10-19T16:19:22.795Z,44.55
2022-10-19T16:23:24.440Z,45.63
2022-10-19T16:27:24.223Z,46.65
2022-10-19T16:31:24.000Z,47.09
2022-10-19T16:35:25.184Z,47.48
2022-10-19T16:39:26.184Z,47.29
2022-10-19T16:43:26.665Z,46.63
2022-10-19T16:47:26.456Z,44.88
2022-10-19T16:51:37.058Z,43.30
2022-10-19T16:55:43.058Z,43.44
2022-10-19T17:03:58.525Z,46.97
2022-10-19T17:07:57.624Z,47.30
2022-10-19T17:11:59.683Z,47.40
2022-10-19T17:16:16.589Z,47.89
2022-10-19T17:20:27.509Z,47.39
2022-10-19T17:24:28.015Z,47.11
2022-10-19T17:28:32.868Z,47.40
2022-10-19T17:32:32.143Z,48.38
2022-10-19T17:36:34.782Z,48.59
2022-10-19T17:40:35.262Z,49.31
2022-10-19T17:44:37.428Z,49.19
2022-10-19T17:48:40.169Z,50.21
2022-10-19T17:52:40.024Z,48.70
2022-10-19T17:56:40.815Z,48.43
2022-10-19T18:00:43.194Z,48.15
2022-10-19T18:04:52.796Z,48.74
2022-10-19T18:09:00.612Z,49.13
2022-10-19T18:13:06.638Z,49.46
2022-10-19T18:17:09.698Z,49.82
2022-10-19T18:21:12.456Z,50.47
2022-10-19T18:25:21.716Z,51.46
2022-10-19T18:29:31.493Z,52.74
2022-10-19T18:33:39.142Z,53.87
2022-10-19T18:37:43.334Z,54.33
2022-10-19T18:41:56.979Z,54.04
2022-10-19T18:45:58.054Z,53.65
2022-10-19T18:50:00.232Z,53.35
2022-10-19T18:54:05.050Z,53.79
2022-10-19T18:58:05.267Z,53.91
2022-10-19T19:02:05.840Z,52.84
2022-10-19T19:06:09.709Z,53.41
2022-10-19T19:10:12.715Z,54.42
2022-10-19T19:14:15.499Z,55.27
2022-10-19T19:22:18.463Z,56.99
2022-10-19T19:26:21.361Z,57.48
2022-10-19T19:30:21.177Z,57.62
2022-10-19T19:34:20.486Z,58.25
2022-10-19T19:43:08.172Z,58.16
2022-10-19T19:47:29.275Z,58.26
2022-10-19T19:51:28.694Z,59.13
2022-10-19T19:55:42.248Z,58.65
2022-10-19T19:59:41.613Z,57.77
2022-10-19T20:03:46.862Z,56.08
2022-10-19T20:07:50.418Z,53.49
2022-10-19T20:11:52.319Z,52.72
2022-10-19T20:16:11.407Z,52.08
2022-10-19T20:20:12.264Z,52.22
2022-10-19T20:24:12.156Z,52.83
2022-10-19T20:28:14.002Z,53.51
2022-10-19T20:32:13.263Z,54.46
2022-10-19T20:36:15.636Z,55.69
2022-10-19T20:40:15.611Z,56.77
2022-10-19T20:44:20.473Z,56.31
2022-10-19T20:48:20.231Z,55.95
2022-10-19T20:52:19.484Z,55.45
2022-10-19T20:56:22.735Z,55.50
2022-10-19T21:00:24.255Z,55.60
2022-10-19T21:04:25.269Z,56.04
2022-10-19T21:08:24.486Z,56.95
2022-10-19T21:12:24.307Z,57.56
2022-10-19T21:16:30.112Z,57.53
2022-10-19T21:20:29.870Z,57.04
2022-10-19T21:24:31.944Z,56.28
2022-10-19T21:28:33.933Z,55.98
2022-10-19T21:32:52.351Z,55.35
2022-10-19T21:36:52.714Z,55.71
2022-10-19T21:40:51.995Z,60.65
2022-10-19T21:45:01.029Z,59.80
2022-10-19T21:49:02.686Z,58.32
2022-10-19T21:53:02.573Z,58.17
2022-10-19T21:57:02.733Z,57.63
2022-10-19T22:01:06.377Z,57.26
2022-10-19T22:05:08.771Z,57.61
2022-10-19T22:09:10.770Z,56.91
2022-10-19T22:13:10.524Z,57.63
2022-10-19T22:17:10.119Z,57.49
2022-10-19T22:21:14.765Z,58.14
2022-10-19T22:25:14.519Z,58.68
2022-10-19T22:29:14.769Z,58.54
2022-10-19T22:33:27.654Z,58.67
2022-10-19T22:37:29.462Z,58.49
2022-10-19T22:41:29.289Z,58.96
2022-10-19T22:45:29.131Z,58.61
2022-10-19T22:49:28.794Z,58.26
2022-10-19T22:53:30.658Z,59.29
2022-10-19T22:57:29.752Z,59.19
2022-10-19T23:01:30.041Z,58.71
2022-10-19T23:05:29.635Z,57.38
2022-10-19T23:09:30.941Z,56.53
2022-10-19T23:13:30.315Z,56.03
2022-10-19T23:17:29.970Z,55.25
2022-10-19T23:21:29.085Z,54.85
2022-10-19T23:29:34.942Z,54.11
2022-10-19T23:33:34.924Z,54.20
2022-10-19T23:37:35.998Z,53.99
2022-10-19T23:41:37.525Z,53.64
2022-10-19T23:45:37.215Z,53.87
2022-10-19T23:49:36.918Z,54.49
2022-10-19T23:53:40.813Z,54.07
2022-10-19T23:57:43.250Z,54.04
